createdAt,value
2022-08-20T00:00:38.738Z,21.37
2022-08-20T00:01:39.736Z,21.32
2022-08-20T00:02:39.229Z,21.30
2022-08-20T00:03:38.719Z,21.30
2022-08-20T00:04:39.634Z,21.29
2022-08-20T00:05:38.706Z,21.28
2022-08-20T00:06:38.799Z,21.23
2022-08-20T00:07:38.662Z,21.20
2022-08-20T00:08:38.668Z,21.14
2022-08-20T00:09:38.646Z,21.19
2022-08-20T00:10:38.659Z,21.23
2022-08-20T00:11:38.819Z,21.18
2022-08-20T00:12:38.628Z,21.18
2022-08-20T00:13:38.618Z,21.23
2022-08-20T00:14:39.048Z,21.23
2022-08-20T00:15:38.618Z,21.16
2022-08-20T00:16:38.668Z,21.18
2022-08-20T00:17:38.857Z,21.14
2022-08-20T00:18:39.499Z,21.14
2022-08-20T00:19:39.283Z,21.16
2022-08-20T00:20:39.518Z,21.13
2022-08-20T00:21:38.878Z,21.19
2022-08-20T00:22:38.569Z,21.16
2022-08-20T00:23:38.555Z,21.10
2022-08-20T00:24:38.701Z,21.16
2022-08-20T00:25:38.543Z,21.16
2022-08-20T00:26:38.558Z,21.14
2022-08-20T00:27:38.518Z,21.14
2022-08-20T00:28:38.527Z,21.18
2022-08-20T00:29:38.508Z,21.14
2022-08-20T00:30:38.506Z,21.19
2022-08-20T00:31:38.518Z,21.16
2022-08-20T00:32:38.498Z,21.19
2022-08-20T00:33:38.489Z,21.13
2022-08-20T00:34:38.477Z,21.11
2022-08-20T00:35:39.007Z,21.14
2022-08-20T00:36:38.574Z,21.14
2022-08-20T00:37:38.460Z,21.16
2022-08-20T00:38:38.447Z,21.14
2022-08-20T00:39:38.472Z,21.10
2022-08-20T00:40:38.796Z,21.10
2022-08-20T00:41:38.637Z,21.10
2022-08-20T00:42:38.427Z,21.13
2022-08-20T00:43:38.856Z,21.11
2022-08-20T00:44:38.448Z,21.19
2022-08-20T00:45:38.398Z,21.22
2022-08-20T00:46:38.405Z,21.22
2022-08-20T00:47:38.396Z,21.18
2022-08-20T00:48:38.375Z,21.19
2022-08-20T00:49:38.375Z,21.25
2022-08-20T00:50:38.376Z,21.23
2022-08-20T00:51:38.666Z,21.26
2022-08-20T00:52:38.358Z,21.25
2022-08-20T00:53:38.366Z,21.32
2022-08-20T00:54:38.475Z,21.29
2022-08-20T00:55:38.338Z,21.32
2022-08-20T00:56:38.364Z,21.30
2022-08-20T00:57:59.125Z,21.34
2022-08-20T00:58:38.307Z,21.32
2022-08-20T00:59:38.314Z,21.32
2022-08-20T01:00:38.298Z,21.34
2022-08-20T01:01:52.728Z,21.32
2022-08-20T01:02:38.296Z,21.30
2022-08-20T01:03:38.338Z,21.29
2022-08-20T01:04:38.337Z,21.23
2022-08-20T01:05:38.277Z,21.22
2022-08-20T01:06:38.323Z,21.19
2022-08-20T01:07:38.248Z,21.23
2022-08-20T01:08:38.235Z,21.25
2022-08-20T01:09:58.006Z,21.26
2022-08-20T01:10:38.224Z,21.23
2022-08-20T01:11:38.236Z,21.22
2022-08-20T01:12:38.796Z,21.23
2022-08-20T01:13:38.215Z,21.19
2022-08-20T01:14:38.196Z,21.18
2022-08-20T01:15:42.931Z,21.16
2022-08-20T01:16:38.255Z,21.19
2022-08-20T01:17:38.185Z,21.19
2022-08-20T01:18:38.466Z,21.19
2022-08-20T01:19:38.225Z,21.19
2022-08-20T01:20:38.155Z,21.19
2022-08-20T01:21:38.174Z,21.19
2022-08-20T01:22:38.152Z,21.18
2022-08-20T01:23:38.455Z,21.14
2022-08-20T01:24:39.036Z,21.16
2022-08-20T01:25:38.512Z,21.13
2022-08-20T01:26:38.164Z,21.04
2022-08-20T01:27:42.690Z,20.85
2022-08-20T01:28:38.105Z,20.65
2022-08-20T01:29:38.107Z,20.50
2022-08-20T01:30:38.085Z,20.41
2022-08-20T01:31:38.084Z,20.34
2022-08-20T01:32:38.084Z,20.29
2022-08-20T01:33:38.934Z,20.23
2022-08-20T01:34:39.094Z,20.22
2022-08-20T01:35:38.125Z,20.15
2022-08-20T01:36:38.486Z,20.17
2022-08-20T01:37:38.143Z,20.15
2022-08-20T01:38:38.143Z,20.15
2022-08-20T01:39:38.183Z,20.17
2022-08-20T01:40:38.201Z,20.18
2022-08-20T01:41:38.376Z,20.19
2022-08-20T01:42:38.035Z,20.26
2022-08-20T01:43:38.011Z,20.29
2022-08-20T01:44:38.005Z,20.30
2022-08-20T01:45:38.013Z,20.27
2022-08-20T01:46:43.681Z,20.26
2022-08-20T01:47:38.717Z,20.27
2022-08-20T01:48:38.204Z,20.32
2022-08-20T01:49:37.965Z,20.37
2022-08-20T01:50:38.274Z,20.34
2022-08-20T01:51:37.985Z,20.33
2022-08-20T01:52:37.994Z,20.33
2022-08-20T01:53:37.943Z,20.33
2022-08-20T01:54:38.503Z,20.30
2022-08-20T01:55:37.923Z,20.30
2022-08-20T01:56:37.913Z,20.29
2022-08-20T01:57:37.922Z,20.29
2022-08-20T01:58:38.273Z,20.26
2022-08-20T02:01:03.982Z,20.23
2022-08-20T02:02:03.839Z,20.23
2022-08-20T02:03:03.859Z,20.18
2022-08-20T02:04:03.828Z,20.17
2022-08-20T02:05:03.823Z,20.15
2022-08-20T02:06:03.821Z,20.08
2022-08-20T02:07:03.810Z,19.97
2022-08-20T02:08:04.645Z,19.92
2022-08-20T02:09:04.651Z,19.84
2022-08-20T02:10:03.808Z,19.81
2022-08-20T02:11:03.888Z,19.74
2022-08-20T02:12:03.774Z,19.68
2022-08-20T02:13:03.788Z,19.70
2022-08-20T02:14:03.750Z,19.63
2022-08-20T02:15:03.753Z,19.67
2022-08-20T02:16:03.879Z,19.67
2022-08-20T02:17:03.751Z,19.68
2022-08-20T02:18:03.792Z,19.67
2022-08-20T02:19:03.729Z,19.64
2022-08-20T02:20:03.727Z,19.62
2022-08-20T02:21:03.722Z,19.60
2022-08-20T02:22:03.718Z,19.62
2022-08-20T02:23:03.722Z,19.63
2022-08-20T02:24:03.700Z,19.59
2022-08-20T02:25:03.682Z,19.56
2022-08-20T02:26:03.669Z,19.56
2022-08-20T02:27:04.275Z,19.57
2022-08-20T02:28:03.667Z,19.57
2022-08-20T02:29:03.669Z,19.54
2022-08-20T02:30:04.399Z,19.53
2022-08-20T02:31:03.656Z,19.57
2022-08-20T02:32:32.803Z,19.57
2022-08-20T02:33:03.626Z,19.59
2022-08-20T02:34:18.480Z,19.57
2022-08-20T02:35:04.577Z,19.56
2022-08-20T02:36:03.606Z,19.52
2022-08-20T02:37:03.655Z,19.54
2022-08-20T02:38:03.605Z,19.52
2022-08-20T02:39:03.618Z,19.50
2022-08-20T02:40:03.658Z,19.49
2022-08-20T02:41:03.968Z,19.53
2022-08-20T02:42:03.557Z,19.45
2022-08-20T02:43:03.575Z,19.47
2022-08-20T02:44:03.776Z,19.52
2022-08-20T02:45:03.546Z,19.47
2022-08-20T02:46:03.537Z,19.47
2022-08-20T02:47:03.585Z,19.47
2022-08-20T02:48:03.516Z,19.44
2022-08-20T02:49:03.528Z,19.45
2022-08-20T02:50:03.506Z,19.38
2022-08-20T02:51:03.495Z,19.39
2022-08-20T02:52:03.536Z,19.38
2022-08-20T02:53:03.483Z,19.41
2022-08-20T02:54:03.497Z,19.39
2022-08-20T02:55:03.476Z,19.39
2022-08-20T02:56:03.475Z,19.41
2022-08-20T02:57:03.864Z,19.35
2022-08-20T02:58:03.465Z,19.30
2022-08-20T02:59:03.445Z,19.31
2022-08-20T03:00:03.596Z,19.27
2022-08-20T03:01:04.147Z,19.27
2022-08-20T03:02:03.794Z,19.24
2022-08-20T03:03:03.415Z,19.27
2022-08-20T03:04:03.905Z,19.23
2022-08-20T03:05:03.405Z,19.24
2022-08-20T03:06:03.396Z,19.22
2022-08-20T03:07:03.384Z,19.24
2022-08-20T03:08:03.433Z,19.20
2022-08-20T03:09:03.385Z,19.20
2022-08-20T03:10:03.356Z,19.15
2022-08-20T03:11:03.365Z,19.15
2022-08-20T03:12:03.664Z,19.12
2022-08-20T03:13:03.488Z,19.13
2022-08-20T03:14:03.346Z,19.15
2022-08-20T03:15:03.334Z,19.15
2022-08-20T03:16:03.906Z,19.12
2022-08-20T03:17:03.313Z,19.07
2022-08-20T03:18:03.913Z,19.05
2022-08-20T03:19:03.304Z,19.09
2022-08-20T03:20:03.284Z,19.07
2022-08-20T03:21:03.281Z,19.07
2022-08-20T03:22:03.275Z,19.07
2022-08-20T03:23:04.153Z,19.05
2022-08-20T03:24:03.273Z,19.07
2022-08-20T03:25:03.262Z,19.05
2022-08-20T03:26:03.243Z,19.01
2022-08-20T03:27:03.244Z,18.98
2022-08-20T03:28:03.233Z,18.94
2022-08-20T03:29:03.473Z,18.93
2022-08-20T03:30:03.293Z,18.98
2022-08-20T03:31:03.594Z,18.91
2022-08-20T03:32:07.578Z,18.83
2022-08-20T03:33:03.216Z,18.86
2022-08-20T03:34:03.403Z,18.83
2022-08-20T03:35:03.192Z,18.82
2022-08-20T03:36:03.831Z,18.85
2022-08-20T03:37:03.171Z,18.85
2022-08-20T03:38:03.161Z,18.81
2022-08-20T03:39:03.184Z,18.81
2022-08-20T03:40:03.976Z,18.81
2022-08-20T03:41:03.141Z,18.71
2022-08-20T03:42:03.135Z,18.74
2022-08-20T03:43:03.130Z,18.75
2022-08-20T03:44:04.093Z,18.79
2022-08-20T03:45:03.122Z,18.81
2022-08-20T03:46:03.109Z,18.76
2022-08-20T03:47:04.059Z,18.74
2022-08-20T03:48:03.092Z,18.75
2022-08-20T03:49:03.106Z,18.74
2022-08-20T03:50:03.216Z,18.78
2022-08-20T03:51:03.074Z,18.79
2022-08-20T03:52:03.058Z,18.79
2022-08-20T03:53:03.121Z,18.81
2022-08-20T03:54:03.042Z,18.83
2022-08-20T03:55:03.050Z,18.88
2022-08-20T03:56:03.035Z,18.88
2022-08-20T03:57:03.709Z,18.91
2022-08-20T03:58:03.060Z,18.89
2022-08-20T03:59:03.011Z,18.93
2022-08-20T04:00:03.000Z,18.93
2022-08-20T04:01:03.104Z,18.94
2022-08-20T04:02:03.038Z,18.96
2022-08-20T04:03:03.111Z,18.97
2022-08-20T04:04:02.980Z,18.96
2022-08-20T04:05:02.971Z,18.96
2022-08-20T04:06:03.012Z,18.94
2022-08-20T04:07:03.020Z,18.94
2022-08-20T04:08:03.607Z,18.94
2022-08-20T04:09:02.939Z,18.97
2022-08-20T04:10:02.941Z,19.01
2022-08-20T04:11:02.929Z,18.97
2022-08-20T04:12:02.926Z,19.00
2022-08-20T04:13:02.930Z,18.98
2022-08-20T04:14:02.900Z,18.96
2022-08-20T04:15:02.899Z,18.98
2022-08-20T04:16:02.898Z,18.97
2022-08-20T04:17:02.889Z,18.96
2022-08-20T04:18:02.940Z,18.97
2022-08-20T04:19:02.926Z,18.98
2022-08-20T04:20:02.861Z,19.01
2022-08-20T04:21:03.019Z,19.05
2022-08-20T04:22:02.845Z,18.98
2022-08-20T04:23:02.948Z,19.04
2022-08-20T04:24:02.868Z,19.04
2022-08-20T04:25:02.847Z,19.01
2022-08-20T04:26:02.819Z,18.98
2022-08-20T04:27:03.089Z,19.04
2022-08-20T04:28:02.968Z,18.97
2022-08-20T04:29:02.808Z,18.93
2022-08-20T04:30:02.788Z,18.93
2022-08-20T04:31:03.679Z,18.93
2022-08-20T04:32:05.723Z,18.89
2022-08-20T04:33:02.778Z,18.91
2022-08-20T04:34:02.769Z,18.94
2022-08-20T04:35:02.857Z,18.96
2022-08-20T04:36:04.707Z,18.93
2022-08-20T04:37:02.771Z,18.94
2022-08-20T04:38:02.738Z,18.94
2022-08-20T04:39:02.941Z,18.94
2022-08-20T04:40:02.926Z,18.96
2022-08-20T04:41:02.736Z,18.98
2022-08-20T04:42:02.759Z,18.96
2022-08-20T04:43:02.717Z,19.00
2022-08-20T04:44:02.697Z,18.98
2022-08-20T04:45:02.737Z,18.94
2022-08-20T04:46:02.677Z,18.93
2022-08-20T04:47:02.717Z,18.91
2022-08-20T04:48:02.706Z,18.91
2022-08-20T04:49:02.717Z,18.86
2022-08-20T04:50:02.826Z,18.85
2022-08-20T04:51:02.656Z,18.89
2022-08-20T04:52:02.935Z,18.85
2022-08-20T04:53:02.945Z,18.83
2022-08-20T04:54:02.618Z,18.83
2022-08-20T04:55:02.633Z,18.82
2022-08-20T04:56:02.647Z,18.83
2022-08-20T04:57:02.757Z,18.85
2022-08-20T04:58:02.596Z,18.88
2022-08-20T04:59:03.296Z,18.85
2022-08-20T05:00:03.109Z,18.88
2022-08-20T05:01:03.340Z,18.91
2022-08-20T05:02:03.544Z,18.93
2022-08-20T05:03:03.006Z,18.91
2022-08-20T05:04:02.555Z,18.96
2022-08-20T05:05:02.611Z,18.96
2022-08-20T05:06:02.634Z,19.00
2022-08-20T05:07:02.831Z,19.08
2022-08-20T05:08:02.534Z,19.15
2022-08-20T05:09:02.689Z,19.07
2022-08-20T05:10:02.857Z,19.08
2022-08-20T05:11:30.062Z,19.12
2022-08-20T05:12:02.518Z,19.13
2022-08-20T05:13:02.494Z,19.15
2022-08-20T05:14:02.583Z,19.17
2022-08-20T05:15:02.585Z,19.17
2022-08-20T05:16:02.474Z,19.19
2022-08-20T05:17:02.485Z,19.17
2022-08-20T05:18:02.498Z,19.17
2022-08-20T05:19:02.816Z,19.20
2022-08-20T05:20:02.814Z,19.24
2022-08-20T05:21:02.433Z,19.24
2022-08-20T05:22:02.444Z,19.26
2022-08-20T05:23:02.424Z,19.26
2022-08-20T05:24:02.982Z,19.23
2022-08-20T05:25:02.424Z,19.23
2022-08-20T05:26:02.752Z,19.23
2022-08-20T05:27:02.464Z,19.26
2022-08-20T05:28:02.563Z,19.27
2022-08-20T05:29:02.474Z,19.27
2022-08-20T05:30:03.101Z,19.26
2022-08-20T05:31:02.372Z,19.27
2022-08-20T05:32:02.391Z,19.27
2022-08-20T05:33:02.393Z,19.27
2022-08-20T05:34:02.412Z,19.30
2022-08-20T05:35:02.341Z,19.26
2022-08-20T05:36:02.533Z,19.27
2022-08-20T05:37:02.541Z,19.26
2022-08-20T05:38:02.315Z,19.30
2022-08-20T05:39:02.310Z,19.30
2022-08-20T05:40:02.669Z,19.34
2022-08-20T05:41:02.458Z,19.35
2022-08-20T05:42:02.388Z,19.31
2022-08-20T05:43:02.465Z,19.34
2022-08-20T05:44:02.273Z,19.30
2022-08-20T05:45:02.263Z,19.32
2022-08-20T05:46:03.002Z,19.30
2022-08-20T05:47:04.187Z,19.30
2022-08-20T05:48:03.471Z,19.30
2022-08-20T05:49:02.261Z,19.24
2022-08-20T05:50:02.310Z,19.26
2022-08-20T05:51:02.320Z,19.23
2022-08-20T05:52:02.214Z,19.22
2022-08-20T05:53:02.201Z,19.23
2022-08-20T05:54:02.449Z,19.24
2022-08-20T05:55:02.553Z,19.23
2022-08-20T05:56:02.562Z,19.23
2022-08-20T05:57:02.180Z,19.30
2022-08-20T05:58:02.180Z,19.24
2022-08-20T05:59:02.170Z,19.30
2022-08-20T06:00:02.160Z,19.38
2022-08-20T06:01:02.282Z,19.37
2022-08-20T06:02:02.150Z,19.39
2022-08-20T06:03:02.139Z,19.42
2022-08-20T06:04:02.320Z,19.50
2022-08-20T06:05:02.121Z,19.54
2022-08-20T06:06:02.148Z,19.52
2022-08-20T06:07:02.108Z,19.49
2022-08-20T06:08:07.730Z,19.52
2022-08-20T06:09:02.097Z,19.56
2022-08-20T06:10:02.091Z,19.62
2022-08-20T06:11:02.090Z,19.60
2022-08-20T06:12:02.109Z,19.68
2022-08-20T06:13:02.100Z,19.70
2022-08-20T06:14:03.007Z,19.71
2022-08-20T06:15:02.050Z,19.74
2022-08-20T06:16:02.069Z,19.72
2022-08-20T06:17:02.695Z,19.71
2022-08-20T06:18:02.051Z,19.78
2022-08-20T06:19:02.851Z,19.82
2022-08-20T06:20:02.028Z,19.79
2022-08-20T06:21:02.028Z,19.89
2022-08-20T06:22:02.031Z,19.99
2022-08-20T06:23:02.036Z,20.02
2022-08-20T06:24:02.022Z,20.09
2022-08-20T06:25:01.998Z,20.19
2022-08-20T06:26:02.010Z,20.25
2022-08-20T06:27:02.159Z,20.17
2022-08-20T06:28:01.969Z,20.17
2022-08-20T06:29:01.948Z,20.25
2022-08-20T06:30:01.949Z,20.17
2022-08-20T06:31:01.947Z,20.18
2022-08-20T06:32:01.952Z,20.14
2022-08-20T06:33:01.937Z,20.18
2022-08-20T06:34:01.918Z,20.07
2022-08-20T06:35:02.421Z,20.02
2022-08-20T06:36:01.907Z,20.08
2022-08-20T06:37:01.907Z,20.00
2022-08-20T06:38:01.897Z,20.04
2022-08-20T06:39:01.880Z,20.07
2022-08-20T06:40:02.867Z,20.07
2022-08-20T06:41:01.868Z,20.07
2022-08-20T06:42:01.877Z,20.02
2022-08-20T06:43:01.854Z,20.07
2022-08-20T06:44:01.856Z,20.14
2022-08-20T06:45:01.837Z,20.19
2022-08-20T06:46:01.836Z,20.19
2022-08-20T06:47:01.877Z,20.30
2022-08-20T06:48:01.827Z,20.30
2022-08-20T06:49:01.818Z,20.48
2022-08-20T06:50:02.217Z,20.50
2022-08-20T06:51:01.801Z,20.56
2022-08-20T06:52:01.826Z,20.56
2022-08-20T06:53:01.783Z,20.53
2022-08-20T06:54:01.787Z,20.58
2022-08-20T06:55:01.767Z,20.56
2022-08-20T06:56:01.767Z,20.52
2022-08-20T06:57:01.766Z,20.63
2022-08-20T06:58:02.590Z,20.75
2022-08-20T06:59:01.746Z,20.85
2022-08-20T07:00:01.736Z,20.88
2022-08-20T07:01:05.030Z,20.77
2022-08-20T07:02:01.746Z,20.71
2022-08-20T07:03:01.906Z,20.71
2022-08-20T07:04:01.714Z,20.77
2022-08-20T07:05:01.705Z,20.88
2022-08-20T07:06:01.706Z,20.95
2022-08-20T07:07:01.728Z,21.04
2022-08-20T07:08:01.685Z,21.23
2022-08-20T07:09:01.677Z,21.38
2022-08-20T07:10:01.675Z,21.34
2022-08-20T07:11:01.655Z,21.32
2022-08-20T07:12:02.075Z,21.45
2022-08-20T07:13:01.647Z,21.40
2022-08-20T07:14:01.665Z,21.30
2022-08-20T07:15:01.636Z,21.32
2022-08-20T07:16:01.644Z,21.26
2022-08-20T07:17:02.317Z,21.18
2022-08-20T07:18:01.833Z,21.10
2022-08-20T07:19:01.615Z,20.97
2022-08-20T07:20:01.621Z,20.89
2022-08-20T07:21:01.824Z,20.95
2022-08-20T07:22:01.585Z,21.05
2022-08-20T07:23:01.584Z,21.14
2022-08-20T07:24:02.357Z,21.19
2022-08-20T07:25:01.645Z,21.16
2022-08-20T07:26:01.605Z,21.14
2022-08-20T07:27:01.546Z,21.14
2022-08-20T07:28:01.545Z,21.19
2022-08-20T07:29:01.674Z,21.16
2022-08-20T07:30:01.536Z,21.14
2022-08-20T07:31:12.332Z,21.16
2022-08-20T07:32:01.522Z,21.10
2022-08-20T07:33:01.514Z,21.01
2022-08-20T07:34:01.512Z,20.98
2022-08-20T07:35:01.513Z,20.90
2022-08-20T07:36:01.514Z,20.88
2022-08-20T07:37:01.536Z,20.86
2022-08-20T07:38:01.539Z,20.83
2022-08-20T07:39:05.699Z,20.83
2022-08-20T07:40:01.523Z,20.80
2022-08-20T07:41:01.463Z,20.86
2022-08-20T07:42:01.445Z,20.80
2022-08-20T07:43:01.776Z,20.77
2022-08-20T07:44:01.884Z,20.74
2022-08-20T07:45:01.414Z,20.73
2022-08-20T07:46:01.793Z,20.79
2022-08-20T07:47:01.494Z,20.80
2022-08-20T07:48:02.013Z,20.89
2022-08-20T07:49:01.391Z,20.92
2022-08-20T07:50:01.386Z,20.92
2022-08-20T07:51:01.430Z,20.92
2022-08-20T07:52:01.437Z,20.86
2022-08-20T07:53:01.356Z,20.88
2022-08-20T07:54:01.373Z,21.05
2022-08-20T07:55:01.360Z,21.29
2022-08-20T07:56:01.564Z,21.53
2022-08-20T07:57:01.334Z,21.74
2022-08-20T07:58:01.334Z,21.91
2022-08-20T07:59:01.324Z,21.91
2022-08-20T08:01:28.368Z,22.22
2022-08-20T08:02:27.262Z,22.27
2022-08-20T08:03:39.611Z,22.27
2022-08-20T08:04:27.253Z,22.28
2022-08-20T08:05:27.444Z,22.34
2022-08-20T08:06:29.098Z,22.22
2022-08-20T08:07:27.437Z,22.28
2022-08-20T08:08:27.462Z,22.28
2022-08-20T08:09:28.074Z,22.19
2022-08-20T08:10:27.272Z,22.16
2022-08-20T08:11:27.222Z,22.01
2022-08-20T08:12:27.193Z,22.09
2022-08-20T08:13:27.204Z,22.15
2022-08-20T08:14:27.306Z,22.21
2022-08-20T08:15:27.174Z,22.12
2022-08-20T08:16:27.183Z,22.06
2022-08-20T08:17:27.169Z,21.84
2022-08-20T08:18:31.383Z,21.78
2022-08-20T08:19:27.152Z,21.55
2022-08-20T08:20:27.143Z,21.34
2022-08-20T08:21:27.762Z,21.19
2022-08-20T08:22:27.561Z,21.04
2022-08-20T08:23:32.109Z,20.97
2022-08-20T08:24:28.560Z,20.93
2022-08-20T08:25:27.111Z,20.90
2022-08-20T08:26:27.282Z,20.97
2022-08-20T08:27:27.093Z,21.04
2022-08-20T08:28:27.192Z,21.10
2022-08-20T08:29:27.081Z,21.08
2022-08-20T08:30:27.061Z,21.10
2022-08-20T08:31:27.081Z,21.19
2022-08-20T08:32:27.052Z,21.22
2022-08-20T08:33:27.053Z,21.30
2022-08-20T08:34:27.032Z,21.35
2022-08-20T08:35:27.033Z,21.35
2022-08-20T08:36:27.042Z,21.37
2022-08-20T08:37:30.635Z,21.41
2022-08-20T08:38:27.013Z,21.48
2022-08-20T08:39:31.779Z,21.55
2022-08-20T08:40:27.012Z,21.66
2022-08-20T08:41:27.074Z,21.73
2022-08-20T08:42:26.999Z,21.67
2022-08-20T08:43:26.980Z,21.69
2022-08-20T08:44:27.297Z,21.60
2022-08-20T08:45:27.502Z,21.63
2022-08-20T08:46:27.842Z,21.69
2022-08-20T08:47:27.011Z,21.85
2022-08-20T08:48:26.960Z,21.81
2022-08-20T08:49:37.557Z,21.75
2022-08-20T08:50:50.077Z,21.77
2022-08-20T08:51:27.022Z,21.73
2022-08-20T08:52:27.135Z,21.63
2022-08-20T08:53:26.951Z,21.58
2022-08-20T08:54:27.361Z,21.50
2022-08-20T08:55:26.892Z,21.43
2022-08-20T08:56:27.387Z,21.40
2022-08-20T08:57:26.884Z,21.22
2022-08-20T08:58:26.872Z,21.07
2022-08-20T08:59:27.623Z,21.04
2022-08-20T09:00:26.853Z,20.97
2022-08-20T09:01:54.616Z,21.00
2022-08-20T09:02:27.047Z,21.01
2022-08-20T09:03:27.011Z,21.01
2022-08-20T09:04:27.850Z,21.03
2022-08-20T09:05:27.231Z,21.07
2022-08-20T09:06:27.649Z,21.05
2022-08-20T09:07:27.241Z,21.03
2022-08-20T09:08:26.862Z,21.05
2022-08-20T09:09:27.139Z,21.14
2022-08-20T09:10:26.781Z,21.20
2022-08-20T09:11:27.893Z,21.23
2022-08-20T09:12:26.903Z,21.22
2022-08-20T09:13:26.785Z,21.22
2022-08-20T09:14:26.762Z,21.19
2022-08-20T09:15:26.921Z,21.18
2022-08-20T09:16:27.975Z,21.10
2022-08-20T09:17:27.110Z,21.05
2022-08-20T09:18:26.730Z,21.10
2022-08-20T09:19:26.721Z,21.04
2022-08-20T09:20:27.173Z,20.98
2022-08-20T09:21:26.931Z,21.00
2022-08-20T09:22:26.735Z,21.04
2022-08-20T09:23:26.809Z,21.08
2022-08-20T09:24:26.747Z,21.14
2022-08-20T09:25:26.751Z,21.25
2022-08-20T09:26:29.198Z,21.18
2022-08-20T09:27:26.670Z,21.13
2022-08-20T09:28:32.546Z,21.08
2022-08-20T09:29:26.649Z,21.05
2022-08-20T09:30:27.000Z,21.05
2022-08-20T09:31:26.649Z,21.11
2022-08-20T09:32:26.659Z,21.07
2022-08-20T09:33:26.668Z,21.01
2022-08-20T09:34:26.667Z,20.93
2022-08-20T09:35:26.611Z,20.97
2022-08-20T09:36:29.210Z,20.90
2022-08-20T09:37:26.830Z,20.97
2022-08-20T09:38:27.450Z,20.93
2022-08-20T09:39:26.582Z,21.04
2022-08-20T09:40:26.681Z,21.16
2022-08-20T09:41:26.698Z,21.19
2022-08-20T09:42:26.579Z,21.19
2022-08-20T09:43:26.548Z,21.25
2022-08-20T09:44:26.548Z,21.23
2022-08-20T09:45:26.778Z,21.35
2022-08-20T09:46:27.048Z,21.44
2022-08-20T09:47:26.518Z,21.48
2022-08-20T09:48:32.020Z,21.47
2022-08-20T09:49:26.511Z,21.37
2022-08-20T09:50:26.516Z,21.45
2022-08-20T09:51:26.595Z,21.58
2022-08-20T09:52:26.501Z,21.69
2022-08-20T09:53:26.683Z,21.90
2022-08-20T09:54:26.480Z,22.06
2022-08-20T09:55:26.468Z,22.06
2022-08-20T09:56:27.518Z,22.11
2022-08-20T09:57:26.448Z,22.06
2022-08-20T09:58:26.457Z,22.01
2022-08-20T09:59:26.980Z,21.91
2022-08-20T10:00:26.449Z,21.96
2022-08-20T10:01:26.489Z,21.93
2022-08-20T10:02:26.425Z,21.93
2022-08-20T10:03:26.409Z,21.88
2022-08-20T10:04:26.408Z,21.88
2022-08-20T10:05:26.849Z,22.00
2022-08-20T10:06:26.417Z,22.13
2022-08-20T10:07:26.377Z,22.06
2022-08-20T10:08:26.628Z,22.00
2022-08-20T10:09:26.366Z,21.96
2022-08-20T10:10:26.366Z,22.03
2022-08-20T10:11:26.350Z,22.11
2022-08-20T10:12:27.118Z,22.06
2022-08-20T10:13:26.345Z,22.07
2022-08-20T10:14:26.680Z,22.04
2022-08-20T10:15:26.318Z,22.13
2022-08-20T10:16:26.319Z,22.23
2022-08-20T10:17:26.318Z,22.36
2022-08-20T10:18:26.308Z,22.40
2022-08-20T10:19:26.289Z,22.34
2022-08-20T10:20:26.295Z,22.21
2022-08-20T10:21:26.308Z,22.16
2022-08-20T10:22:26.296Z,22.27
2022-08-20T10:23:26.276Z,22.36
2022-08-20T10:24:26.271Z,22.38
2022-08-20T10:25:26.737Z,22.40
2022-08-20T10:26:26.256Z,22.43
2022-08-20T10:27:26.256Z,22.37
2022-08-20T10:28:26.558Z,22.41
2022-08-20T10:29:26.230Z,22.58
2022-08-20T10:30:27.067Z,22.73
2022-08-20T10:31:26.226Z,22.83
2022-08-20T10:32:26.243Z,22.91
2022-08-20T10:33:26.197Z,22.96
2022-08-20T10:34:26.197Z,23.03
2022-08-20T10:35:26.186Z,22.81
2022-08-20T10:36:26.178Z,22.80
2022-08-20T10:37:26.199Z,22.74
2022-08-20T10:38:26.177Z,22.78
2022-08-20T10:39:26.157Z,22.66
2022-08-20T10:40:26.168Z,22.55
2022-08-20T10:41:26.166Z,22.51
2022-08-20T10:42:26.144Z,22.52
2022-08-20T10:43:26.788Z,22.52
2022-08-20T10:44:26.127Z,22.61
2022-08-20T10:45:26.128Z,22.78
2022-08-20T10:46:26.114Z,22.96
2022-08-20T10:47:26.126Z,23.14
2022-08-20T10:48:26.109Z,23.14
2022-08-20T10:49:26.089Z,23.21
2022-08-20T10:50:26.096Z,23.23
2022-08-20T10:51:32.517Z,23.07
2022-08-20T10:52:26.097Z,22.91
2022-08-20T10:53:26.067Z,22.74
2022-08-20T10:54:26.059Z,22.85
2022-08-20T10:55:26.059Z,22.86
2022-08-20T10:56:26.116Z,23.18
2022-08-20T10:57:26.536Z,23.17
2022-08-20T10:58:26.029Z,23.46
2022-08-20T10:59:26.027Z,24.06
2022-08-20T11:00:26.775Z,24.55
2022-08-20T11:01:32.591Z,24.79
2022-08-20T11:02:26.147Z,25.03
2022-08-20T11:03:26.367Z,25.11
2022-08-20T11:04:26.576Z,25.08
2022-08-20T11:05:25.977Z,25.31
2022-08-20T11:06:25.985Z,25.71
2022-08-20T11:07:56.283Z,26.03
2022-08-20T11:08:33.740Z,26.23
2022-08-20T11:09:25.995Z,26.68
2022-08-20T11:10:26.006Z,27.37
2022-08-20T11:11:25.938Z,27.97
2022-08-20T11:12:25.946Z,27.35
2022-08-20T11:13:26.228Z,27.66
2022-08-20T11:14:25.926Z,27.57
2022-08-20T11:15:25.906Z,26.83
2022-08-20T11:16:26.037Z,25.88
2022-08-20T11:17:26.038Z,25.14
2022-08-20T11:18:25.910Z,24.63
2022-08-20T11:19:25.877Z,24.51
2022-08-20T11:20:25.883Z,24.55
2022-08-20T11:21:25.867Z,25.16
2022-08-20T11:22:26.696Z,25.43
2022-08-20T11:23:26.336Z,26.07
2022-08-20T11:24:25.846Z,26.82
2022-08-20T11:25:25.849Z,27.50
2022-08-20T11:26:26.517Z,28.13
2022-08-20T11:27:25.898Z,28.34
2022-08-20T11:28:31.562Z,28.37
2022-08-20T11:29:25.806Z,28.49
2022-08-20T11:30:25.925Z,28.28
2022-08-20T11:31:26.747Z,27.73
2022-08-20T11:32:25.807Z,27.54
2022-08-20T11:33:25.786Z,27.35
2022-08-20T11:34:25.787Z,26.94
2022-08-20T11:35:42.162Z,27.08
2022-08-20T11:36:25.988Z,27.12
2022-08-20T11:37:25.985Z,27.41
2022-08-20T11:38:25.758Z,27.93
2022-08-20T11:39:27.656Z,28.19
2022-08-20T11:40:25.776Z,28.61
2022-08-20T11:41:26.207Z,28.79
2022-08-20T11:42:26.229Z,28.56
2022-08-20T11:43:25.818Z,28.50
2022-08-20T11:44:26.239Z,28.38
2022-08-20T11:45:25.833Z,28.90
2022-08-20T11:46:28.580Z,29.25
2022-08-20T11:47:25.708Z,29.49
2022-08-20T11:48:25.692Z,29.50
2022-08-20T11:49:25.684Z,29.86
2022-08-20T11:50:25.678Z,30.20
2022-08-20T11:51:25.670Z,29.96
2022-08-20T11:52:25.679Z,29.71
2022-08-20T11:53:26.068Z,29.33
2022-08-20T11:54:25.667Z,28.25
2022-08-20T11:55:29.528Z,27.98
2022-08-20T11:56:25.638Z,27.95
2022-08-20T11:57:25.888Z,28.74
2022-08-20T11:58:25.708Z,28.53
2022-08-20T11:59:25.619Z,27.83
2022-08-20T12:00:32.199Z,27.66
2022-08-20T12:01:25.602Z,27.19
2022-08-20T12:02:25.776Z,26.63
2022-08-20T12:03:25.621Z,26.57
2022-08-20T12:04:25.587Z,27.12
2022-08-20T12:05:25.579Z,26.70
2022-08-20T12:06:25.577Z,26.15
2022-08-20T12:07:25.950Z,26.34
2022-08-20T12:08:27.598Z,26.45
2022-08-20T12:09:25.548Z,26.33
2022-08-20T12:10:25.549Z,26.19
2022-08-20T12:11:25.553Z,26.33
2022-08-20T12:12:26.409Z,25.89
2022-08-20T12:13:30.664Z,25.48
2022-08-20T12:14:25.528Z,25.38
2022-08-20T12:15:25.510Z,25.46
2022-08-20T12:16:25.519Z,25.43
2022-08-20T12:17:25.497Z,25.48
2022-08-20T12:18:27.104Z,25.38
2022-08-20T12:19:25.480Z,25.34
2022-08-20T12:20:25.481Z,25.01
2022-08-20T12:21:27.084Z,24.96
2022-08-20T12:22:25.620Z,24.78
2022-08-20T12:23:25.461Z,24.60
2022-08-20T12:24:25.459Z,24.55
2022-08-20T12:25:25.659Z,24.47
2022-08-20T12:26:25.450Z,24.23
2022-08-20T12:27:25.419Z,24.11
2022-08-20T12:28:26.050Z,24.04
2022-08-20T12:29:25.409Z,23.96
2022-08-20T12:30:25.410Z,23.91
2022-08-20T12:31:25.420Z,23.91
2022-08-20T12:32:25.399Z,23.74
2022-08-20T12:33:25.500Z,23.52
2022-08-20T12:34:25.709Z,23.37
2022-08-20T12:35:25.372Z,23.29
2022-08-20T12:36:25.370Z,23.21
2022-08-20T12:37:25.351Z,23.17
2022-08-20T12:38:26.299Z,23.17
2022-08-20T12:39:25.339Z,23.21
2022-08-20T12:40:31.701Z,23.14
2022-08-20T12:41:25.327Z,23.11
2022-08-20T12:42:25.350Z,23.11
2022-08-20T12:43:25.454Z,23.21
2022-08-20T12:44:25.569Z,23.31
2022-08-20T12:45:25.578Z,23.31
2022-08-20T12:46:25.298Z,23.28
2022-08-20T12:47:25.300Z,23.31
2022-08-20T12:48:25.299Z,23.36
2022-08-20T12:49:25.269Z,23.34
2022-08-20T12:50:29.648Z,23.41
2022-08-20T12:51:25.410Z,23.59
2022-08-20T12:52:25.281Z,23.69
2022-08-20T12:53:25.259Z,24.00
2022-08-20T12:54:25.248Z,24.08
2022-08-20T12:55:25.240Z,24.31